createdAt,value
2018-02-23T00:01:21.972Z,128.40
2018-02-23T00:03:51.922Z,117.73
2018-02-23T00:06:20.716Z,122.87
2018-02-23T00:08:49.565Z,123.73
2018-02-23T00:11:19.368Z,123.73
2018-02-23T00:13:48.801Z,125.93
2018-02-23T00:16:18.444Z,127.10
2018-02-23T00:18:47.501Z,133.50
2018-02-23T00:21:17.196Z,125.57
2018-02-23T00:23:46.169Z,127.23
2018-02-23T00:26:16.060Z,120.07
2018-02-23T00:28:45.053Z,117.07
2018-02-23T00:31:14.429Z,125.43
2018-02-23T00:33:43.632Z,122.73
2018-02-23T00:36:12.448Z,142.57
2018-02-23T00:38:42.293Z,159.57
2018-02-23T00:41:11.363Z,187.07
2018-02-23T00:43:40.212Z,191.40
2018-02-23T00:46:09.041Z,175.83
2018-02-23T00:48:37.918Z,154.60
2018-02-23T00:51:06.715Z,137.83
2018-02-23T00:53:35.713Z,130.03
2018-02-23T00:56:04.596Z,122.43
2018-02-23T00:58:33.652Z,122.67
2018-02-23T01:01:02.561Z,114.17
2018-02-23T01:03:31.406Z,112.83
2018-02-23T01:06:00.973Z,112.20
2018-02-23T01:08:29.842Z,110.43
2018-02-23T01:10:58.727Z,113.17
2018-02-23T01:13:27.657Z,115.97
2018-02-23T01:15:56.572Z,104.60
2018-02-23T01:18:25.525Z,112.53
2018-02-23T01:20:54.617Z,122.77
2018-02-23T01:23:23.513Z,131.93
2018-02-23T01:25:52.318Z,130.40
2018-02-23T01:28:21.396Z,141.97
2018-02-23T01:30:51.063Z,135.07
2018-02-23T01:33:19.967Z,136.23
2018-02-23T01:35:48.829Z,125.80
2018-02-23T01:38:17.981Z,128.13
2018-02-23T01:40:47.588Z,121.27
2018-02-23T01:43:17.344Z,126.37
2018-02-23T01:45:46.192Z,124.40
2018-02-23T01:48:15.365Z,120.97
2018-02-23T01:50:55.964Z,125.60
2018-02-23T01:53:24.852Z,128.13
2018-02-23T01:55:54.717Z,121.03
2018-02-23T01:58:23.795Z,129.23
2018-02-23T02:00:53.692Z,130.20
2018-02-23T02:03:22.638Z,146.90
2018-02-23T02:05:51.533Z,133.13
2018-02-23T02:08:20.581Z,136.93
2018-02-23T02:10:49.464Z,138.80
2018-02-23T02:13:18.237Z,140.70
2018-02-23T02:15:47.144Z,133.63
2018-02-23T02:18:15.983Z,142.27
2018-02-23T02:20:44.801Z,139.50
2018-02-23T02:23:13.841Z,143.90
2018-02-23T02:25:43.029Z,146.37
2018-02-23T02:28:11.878Z,136.60
2018-02-23T02:30:41.801Z,144.37
2018-02-23T02:33:11.581Z,145.23
2018-02-23T02:35:40.398Z,142.77
2018-02-23T02:38:09.394Z,150.27
2018-02-23T02:40:39.000Z,139.27
2018-02-23T02:43:07.983Z,154.40
2018-02-23T02:45:36.886Z,149.63
2018-02-23T02:48:05.765Z,143.40
2018-02-23T02:50:34.685Z,147.83
2018-02-23T02:53:03.732Z,147.00
2018-02-23T02:55:32.638Z,142.57
2018-02-23T02:58:01.752Z,145.23
2018-02-23T03:00:30.888Z,142.73
2018-02-23T03:03:00.034Z,147.87
2018-02-23T03:05:29.188Z,136.93
2018-02-23T03:07:58.149Z,152.13
2018-02-23T03:10:27.732Z,144.00
2018-02-23T03:12:56.577Z,147.63
2018-02-23T03:15:25.628Z,150.38
2018-02-23T03:17:54.545Z,142.87
2018-02-23T03:20:24.332Z,160.97
2018-02-23T03:22:53.413Z,149.13
2018-02-23T03:25:22.569Z,146.60
2018-02-23T03:27:51.378Z,157.30
2018-02-23T03:30:20.265Z,163.13
2018-02-23T03:32:49.153Z,160.87
2018-02-23T03:35:18.300Z,170.27
2018-02-23T03:37:47.873Z,171.10
2018-02-23T03:40:17.000Z,168.43
2018-02-23T03:42:45.861Z,162.93
2018-02-23T03:45:14.781Z,172.13
2018-02-23T03:47:43.914Z,156.77
2018-02-23T03:50:12.788Z,164.97
2018-02-23T03:52:41.881Z,180.23
2018-02-23T03:55:11.419Z,182.80
2018-02-23T03:57:40.185Z,193.07
2018-02-23T04:00:09.122Z,198.67
2018-02-23T04:02:38.220Z,182.43
2018-02-23T04:05:07.184Z,189.47
2018-02-23T04:07:37.126Z,201.43
2018-02-23T04:10:05.976Z,199.67
2018-02-23T04:12:34.888Z,186.43
2018-02-23T04:15:03.841Z,192.13
2018-02-23T04:17:32.957Z,184.00
2018-02-23T04:20:01.829Z,173.00
2018-02-23T04:22:31.561Z,154.97
2018-02-23T04:25:00.461Z,154.17
2018-02-23T04:27:29.363Z,169.23
2018-02-23T04:29:58.311Z,178.23
2018-02-23T04:32:27.170Z,183.00
2018-02-23T04:34:56.037Z,194.90
2018-02-23T04:37:25.107Z,194.87
2018-02-23T04:39:55.016Z,193.60
2018-02-23T04:42:25.173Z,211.00
2018-02-23T04:44:54.520Z,211.70
2018-02-23T04:47:23.413Z,207.73
2018-02-23T04:49:52.332Z,199.03
2018-02-23T04:52:21.285Z,204.53
2018-02-23T04:54:50.214Z,209.50
2018-02-23T04:57:19.808Z,209.03
2018-02-23T04:59:48.716Z,219.60
2018-02-23T05:02:17.640Z,235.80
2018-02-23T05:04:46.523Z,252.70
2018-02-23T05:07:15.413Z,253.63
2018-02-23T05:09:44.336Z,255.93
2018-02-23T05:12:14.046Z,241.07
2018-02-23T05:14:42.964Z,229.10
2018-02-23T05:17:12.120Z,254.33
2018-02-23T05:19:42.102Z,256.60
2018-02-23T05:22:11.416Z,274.67
2018-02-23T05:24:40.760Z,284.37
2018-02-23T05:27:09.673Z,307.60
2018-02-23T05:29:38.589Z,320.10
2018-02-23T05:32:07.513Z,296.33
2018-02-23T05:34:37.488Z,296.13
2018-02-23T05:37:06.452Z,299.30
2018-02-23T05:39:35.636Z,256.40
2018-02-23T05:42:04.489Z,313.23
2018-02-23T05:44:33.392Z,349.20
2018-02-23T05:47:02.690Z,295.30
2018-02-23T05:49:32.355Z,281.97
2018-02-23T05:52:01.283Z,260.13
2018-02-23T05:54:30.177Z,255.73
2018-02-23T05:56:59.110Z,255.87
2018-02-23T05:59:28.737Z,219.03
2018-02-23T06:01:57.922Z,257.37
2018-02-23T06:04:26.856Z,235.83
2018-02-23T06:06:56.748Z,251.73
2018-02-23T06:09:26.666Z,236.00
2018-02-23T06:11:55.708Z,236.30
2018-02-23T06:14:24.829Z,225.33
2018-02-23T06:16:53.780Z,235.10
2018-02-23T06:19:28.377Z,204.00
2018-02-23T06:21:57.263Z,222.43
2018-02-23T06:24:26.342Z,233.67
2018-02-23T06:26:55.229Z,220.83
2018-02-23T06:29:25.004Z,225.50
2018-02-23T06:31:53.877Z,222.27
2018-02-23T06:34:23.092Z,216.13
2018-02-23T06:36:51.953Z,207.40
2018-02-23T06:39:20.836Z,245.50
2018-02-23T06:41:49.769Z,273.47
2018-02-23T06:44:19.462Z,259.93
2018-02-23T06:46:48.617Z,246.70
2018-02-23T06:49:18.570Z,228.13
2018-02-23T06:51:47.380Z,261.93
2018-02-23T06:54:16.288Z,232.03
2018-02-23T06:56:45.318Z,230.53
2018-02-23T06:59:14.628Z,257.57
2018-02-23T07:01:43.684Z,247.50
2018-02-23T07:04:13.308Z,260.00
2018-02-23T07:06:42.505Z,238.47
2018-02-23T07:09:11.482Z,223.10
2018-02-23T07:11:41.216Z,214.97
2018-02-23T07:14:10.297Z,210.63
2018-02-23T07:16:39.218Z,173.13
2018-02-23T07:19:08.201Z,198.87
2018-02-23T07:21:37.106Z,168.73
2018-02-23T07:24:06.006Z,171.83
2018-02-23T07:26:35.166Z,161.33
2018-02-23T07:29:04.066Z,144.80
2018-02-23T07:31:33.341Z,147.33
2018-02-23T07:34:02.997Z,165.20
2018-02-23T07:36:31.978Z,165.47
2018-02-23T07:39:00.898Z,221.43
2018-02-23T07:41:30.612Z,199.33
2018-02-23T07:43:59.570Z,146.63
2018-02-23T07:46:28.504Z,140.27
2018-02-23T07:48:57.581Z,140.20
2018-02-23T07:51:26.777Z,132.73
2018-02-23T07:53:56.453Z,124.03
2018-02-23T07:56:25.426Z,110.17
2018-02-23T07:58:55.260Z,120.30
2018-02-23T08:01:24.221Z,110.17
2018-02-23T08:03:53.977Z,113.30
2018-02-23T08:06:22.957Z,111.37
2018-02-23T08:08:51.906Z,114.57
2018-02-23T08:11:20.785Z,121.90
2018-02-23T08:13:50.649Z,99.60
2018-02-23T08:16:19.820Z,97.50
2018-02-23T08:18:48.933Z,95.70
2018-02-23T08:21:17.854Z,97.00
2018-02-23T08:23:46.709Z,83.03
2018-02-23T08:26:15.911Z,74.97
2018-02-23T08:28:44.853Z,80.73
2018-02-23T08:31:13.703Z,94.97
2018-02-23T08:33:43.360Z,92.77
2018-02-23T08:36:13.002Z,83.23
2018-02-23T08:38:41.973Z,84.03
2018-02-23T08:41:11.920Z,78.30
2018-02-23T08:43:44.101Z,77.63
2018-02-23T08:46:13.322Z,72.93
2018-02-23T08:48:42.216Z,70.23
2018-02-23T08:51:11.168Z,64.97
2018-02-23T08:53:40.136Z,63.70
2018-02-23T08:56:09.845Z,63.53
2018-02-23T08:58:38.714Z,62.43
2018-02-23T09:01:08.754Z,66.47
2018-02-23T09:03:37.687Z,67.37
2018-02-23T09:06:06.526Z,62.73
2018-02-23T09:08:35.743Z,68.37
2018-02-23T09:11:06.234Z,64.93
2018-02-23T09:13:37.313Z,81.33
2018-02-23T09:16:06.697Z,69.20
2018-02-23T09:18:37.259Z,92.90
2018-02-23T09:21:06.924Z,84.47
2018-02-23T09:23:35.969Z,69.97
2018-02-23T09:26:05.078Z,63.10
2018-02-23T09:28:33.944Z,56.77
2018-02-23T09:31:03.587Z,86.80
2018-02-23T09:33:56.244Z,61.50
2018-02-23T09:36:25.043Z,62.97
2018-02-23T09:38:54.066Z,61.47
2018-02-23T09:41:23.006Z,64.77
2018-02-23T09:43:51.873Z,64.27
2018-02-23T09:46:21.687Z,60.83
2018-02-23T09:48:50.565Z,58.90
2018-02-23T09:51:19.564Z,68.53
2018-02-23T09:53:48.497Z,61.83
2018-02-23T09:56:17.466Z,65.03
2018-02-23T09:58:46.313Z,62.43
2018-02-23T10:01:15.961Z,63.07
2018-02-23T10:03:44.917Z,59.87
2018-02-23T10:06:14.913Z,53.80
2018-02-23T10:08:44.030Z,52.33
2018-02-23T10:11:13.040Z,55.57
2018-02-23T10:13:42.041Z,54.17
2018-02-23T10:16:12.091Z,56.10
2018-02-23T10:18:41.085Z,62.13
2018-02-23T10:21:10.025Z,53.73
2018-02-23T10:23:39.795Z,50.60
2018-02-23T10:26:08.712Z,50.43
2018-02-23T10:28:37.642Z,52.90
2018-02-23T10:31:06.543Z,52.90
2018-02-23T10:33:35.521Z,53.30
2018-02-23T10:36:05.257Z,52.00
2018-02-23T10:38:34.237Z,49.63
2018-02-23T10:41:03.298Z,53.53
2018-02-23T10:43:33.105Z,55.07
2018-02-23T10:46:02.792Z,58.37
2018-02-23T10:48:31.898Z,51.40
2018-02-23T10:51:01.729Z,54.93
2018-02-23T10:53:30.635Z,55.97
2018-02-23T10:55:59.545Z,50.97
2018-02-23T10:58:28.744Z,48.23
2018-02-23T11:00:57.702Z,53.40
2018-02-23T11:03:26.614Z,53.90
2018-02-23T11:05:56.353Z,71.73
2018-02-23T11:08:25.293Z,49.90
2018-02-23T11:10:54.562Z,52.73
2018-02-23T11:13:23.503Z,48.67
2018-02-23T11:15:52.617Z,51.47
2018-02-23T11:18:21.885Z,44.80
2018-02-23T11:20:51.479Z,44.13
2018-02-23T11:23:20.521Z,44.97
2018-02-23T11:25:49.528Z,46.67
2018-02-23T11:28:18.462Z,42.70
2018-02-23T11:30:47.434Z,45.23
2018-02-23T11:33:16.442Z,45.87
2018-02-23T11:35:45.385Z,47.63
2018-02-23T11:38:14.522Z,49.30
2018-02-23T11:40:43.315Z,43.27
2018-02-23T11:43:12.349Z,46.70
2018-02-23T11:45:41.986Z,46.37
2018-02-23T11:48:11.596Z,48.20
2018-02-23T11:50:40.476Z,49.17
2018-02-23T11:53:10.117Z,51.97
2018-02-23T11:55:39.260Z,41.73
2018-02-23T11:58:09.815Z,47.87
2018-02-23T12:00:38.985Z,40.73
2018-02-23T12:03:07.889Z,46.30
2018-02-23T12:05:36.776Z,62.77
2018-02-23T12:08:05.927Z,68.03
2018-02-23T12:10:34.829Z,50.23
2018-02-23T12:13:04.444Z,82.73
2018-02-23T12:15:33.390Z,71.90
2018-02-23T12:18:02.334Z,69.57
2018-02-23T12:20:32.678Z,77.07
2018-02-23T12:23:01.668Z,51.40
2018-02-23T12:25:30.747Z,79.77
2018-02-23T12:28:00.426Z,63.33
2018-02-23T12:30:29.770Z,72.73
2018-02-23T12:32:58.583Z,96.17
2018-02-23T12:35:28.343Z,52.07
2018-02-23T12:37:57.936Z,67.20
2018-02-23T12:40:26.813Z,66.20
2018-02-23T12:42:55.702Z,100.77
2018-02-23T12:45:25.393Z,97.23
2018-02-23T12:47:54.349Z,41.60
2018-02-23T12:50:23.325Z,21.37
2018-02-23T12:52:52.979Z,38.70
2018-02-23T12:55:22.449Z,29.60
2018-02-23T12:57:52.045Z,29.83
2018-02-23T13:00:20.923Z,34.60
2018-02-23T13:02:49.776Z,54.67
2018-02-23T13:05:18.684Z,33.30
2018-02-23T13:07:47.578Z,47.40
2018-02-23T13:10:16.683Z,30.77
2018-02-23T13:12:45.560Z,37.73
2018-02-23T13:15:19.398Z,38.40
2018-02-23T13:17:48.245Z,25.63
2018-02-23T13:20:18.160Z,86.70
2018-02-23T13:22:47.026Z,59.03
2018-02-23T13:25:15.983Z,175.07
2018-02-23T13:27:50.512Z,140.33
2018-02-23T13:30:20.190Z,111.00
2018-02-23T13:32:49.970Z,52.57
2018-02-23T13:35:18.940Z,28.60
2018-02-23T13:37:47.792Z,34.47
2018-02-23T13:40:16.668Z,40.40
2018-02-23T13:42:45.739Z,34.10
2018-02-23T13:45:15.682Z,50.90
2018-02-23T13:47:44.758Z,21.23
2018-02-23T13:50:13.802Z,15.70
2018-02-23T13:52:43.568Z,26.17
2018-02-23T13:55:12.501Z,38.87
2018-02-23T13:57:41.594Z,17.60
2018-02-23T14:00:11.644Z,18.17
2018-02-23T14:02:41.533Z,21.70
2018-02-23T14:05:10.662Z,24.87
2018-02-23T14:07:39.614Z,30.77
2018-02-23T14:10:09.360Z,21.37
2018-02-23T14:12:38.297Z,27.27
2018-02-23T14:15:08.170Z,20.77
2018-02-23T14:17:37.181Z,22.00
2018-02-23T14:20:06.047Z,18.10
2018-02-23T14:22:35.093Z,25.97
2018-02-23T14:25:04.351Z,24.83
2018-02-23T14:27:33.315Z,31.83
2018-02-23T14:30:02.557Z,30.70
2018-02-23T14:32:31.555Z,30.37
2018-02-23T14:35:00.663Z,43.07
2018-02-23T14:37:30.376Z,31.10
2018-02-23T14:39:59.321Z,26.17
2018-02-23T14:42:28.990Z,39.67
2018-02-23T14:44:57.977Z,37.33
2018-02-23T14:47:26.886Z,33.67
2018-02-23T14:50:08.475Z,32.73
2018-02-23T14:52:37.270Z,24.70
2018-02-23T14:55:06.224Z,25.50
2018-02-23T14:57:35.082Z,23.87
2018-02-23T15:00:04.092Z,22.37
2018-02-23T15:02:33.013Z,19.97
2018-02-23T15:05:01.941Z,24.30
2018-02-23T15:07:31.143Z,24.73
2018-02-23T15:10:00.071Z,35.80
2018-02-23T15:12:29.707Z,38.83
2018-02-23T15:14:58.661Z,29.93
2018-02-23T15:17:28.521Z,25.70
2018-02-23T15:19:58.400Z,26.00
2018-02-23T15:22:27.310Z,26.37
2018-02-23T15:24:56.192Z,29.27
2018-02-23T15:27:25.359Z,40.77
2018-02-23T15:29:54.333Z,24.37
2018-02-23T15:32:29.833Z,32.53
2018-02-23T15:34:59.720Z,38.50
2018-02-23T15:37:28.773Z,32.43
2018-02-23T15:39:57.685Z,61.00
2018-02-23T15:42:26.665Z,53.27
2018-02-23T15:44:55.669Z,50.10
2018-02-23T15:47:25.269Z,27.60
2018-02-23T15:49:58.086Z,60.30
2018-02-23T15:52:27.044Z,46.97
2018-02-23T15:54:55.968Z,55.97
2018-02-23T15:57:29.128Z,68.87
2018-02-23T15:59:58.052Z,60.70
2018-02-23T16:02:27.014Z,62.67
2018-02-23T16:04:55.946Z,54.00
2018-02-23T16:07:24.935Z,38.27
2018-02-23T16:09:53.924Z,22.83
2018-02-23T16:12:23.411Z,30.73
2018-02-23T16:14:52.246Z,55.83
2018-02-23T16:17:21.181Z,36.30
2018-02-23T16:19:50.861Z,60.50
2018-02-23T16:22:20.500Z,50.30
2018-02-23T16:24:49.388Z,99.13
2018-02-23T16:27:18.321Z,48.10
2018-02-23T16:29:48.123Z,41.70
2018-02-23T16:32:17.140Z,59.00
2018-02-23T16:34:46.100Z,55.83
2018-02-23T16:37:15.142Z,58.23
2018-02-23T16:39:44.789Z,59.23
2018-02-23T16:42:13.829Z,59.30
2018-02-23T16:44:43.503Z,54.47
2018-02-23T16:47:13.284Z,54.57
2018-02-23T16:49:42.985Z,63.80
2018-02-23T16:52:11.937Z,56.60
2018-02-23T16:54:40.958Z,68.03
2018-02-23T16:57:10.843Z,68.77
2018-02-23T16:59:40.753Z,47.67
2018-02-23T17:02:09.680Z,56.23
2018-02-23T17:04:39.833Z,44.33
2018-02-23T17:07:09.742Z,34.73
2018-02-23T17:09:38.736Z,35.83
2018-02-23T17:12:08.540Z,46.70
2018-02-23T17:14:38.184Z,40.03
2018-02-23T17:17:07.081Z,34.17
2018-02-23T17:19:35.925Z,28.63
2018-02-23T17:22:05.510Z,30.77
2018-02-23T17:24:34.716Z,30.23
2018-02-23T17:27:03.832Z,30.07
2018-02-23T17:29:32.979Z,33.37
2018-02-23T17:32:02.003Z,31.53
2018-02-23T17:34:31.633Z,31.73
2018-02-23T17:37:00.976Z,28.07
2018-02-23T17:39:30.211Z,37.60
2018-02-23T17:41:59.121Z,27.77
2018-02-23T17:44:28.203Z,28.47
2018-02-23T17:46:57.147Z,28.33
2018-02-23T17:49:26.034Z,32.17
2018-02-23T17:51:54.966Z,33.33
2018-02-23T17:54:24.004Z,28.50
2018-02-23T17:56:52.982Z,31.10
2018-02-23T17:59:21.974Z,27.50
2018-02-23T18:01:51.725Z,33.67
2018-02-23T18:04:20.584Z,30.03
2018-02-23T18:06:49.443Z,37.03
2018-02-23T18:09:18.451Z,32.77
2018-02-23T18:11:47.798Z,29.87
2018-02-23T18:14:17.168Z,29.20
2018-02-23T18:16:46.265Z,22.60
2018-02-23T18:19:15.187Z,47.00
2018-02-23T18:21:44.550Z,25.00
2018-02-23T18:24:13.414Z,22.20
2018-02-23T18:26:46.546Z,30.70
2018-02-23T18:29:15.635Z,39.43
2018-02-23T18:31:45.315Z,42.78
2018-02-23T18:34:18.043Z,65.40
2018-02-23T18:36:48.529Z,134.57
2018-02-23T18:39:18.836Z,131.33
2018-02-23T18:41:49.385Z,68.03
2018-02-23T18:44:19.485Z,45.47
2018-02-23T18:46:48.995Z,43.13
2018-02-23T18:49:18.400Z,38.50
2018-02-23T18:51:47.848Z,77.53
2018-02-23T18:54:17.187Z,80.00
2018-02-23T18:56:47.307Z,193.13
2018-02-23T18:59:16.647Z,130.53
2018-02-23T19:01:45.977Z,123.33
2018-02-23T19:04:16.042Z,98.70
2018-02-23T19:06:45.422Z,89.60
2018-02-23T19:09:15.813Z,72.23
2018-02-23T19:11:45.133Z,48.60
2018-02-23T19:14:14.509Z,39.67
2018-02-23T19:16:43.767Z,39.80
2018-02-23T19:19:13.305Z,31.15
2018-02-23T19:21:43.069Z,161.65
2018-02-23T19:24:12.854Z,197.68
2018-02-23T19:26:42.242Z,216.57
2018-02-23T19:29:12.001Z,154.30
2018-02-23T19:31:41.382Z,42.08
2018-02-23T19:34:11.047Z,102.13
2018-02-23T19:36:41.496Z,53.83
2018-02-23T19:39:11.614Z,32.70
2018-02-23T19:41:41.395Z,53.87
2018-02-23T19:44:11.414Z,85.85
2018-02-23T19:46:41.754Z,165.23
2018-02-23T19:49:12.462Z,186.60
2018-02-23T19:51:41.964Z,146.90
2018-02-23T19:54:12.061Z,154.55
2018-02-23T19:56:41.753Z,111.53
2018-02-23T19:59:10.962Z,89.13
2018-02-23T20:01:40.270Z,35.77
2018-02-23T20:04:10.113Z,27.27
2018-02-23T20:06:40.297Z,27.67
2018-02-23T20:09:09.791Z,24.70
2018-02-23T20:11:39.032Z,99.77
2018-02-23T20:14:08.369Z,32.87
2018-02-23T20:16:37.643Z,40.33
2018-02-23T20:19:06.773Z,55.07
2018-02-23T20:21:35.958Z,110.47
2018-02-23T20:24:05.237Z,127.60
2018-02-23T20:26:34.541Z,86.25
2018-02-23T20:29:03.928Z,130.33
2018-02-23T20:31:33.783Z,80.18
2018-02-23T20:34:03.298Z,68.72
2018-02-23T20:36:32.424Z,53.97
2018-02-23T20:39:01.562Z,102.67
2018-02-23T20:41:31.660Z,144.95
2018-02-23T20:44:00.816Z,77.32
2018-02-23T20:46:29.689Z,126.38
2018-02-23T20:48:58.869Z,46.30
2018-02-23T20:51:28.099Z,81.63
2018-02-23T20:53:57.693Z,39.05
2018-02-23T20:56:27.025Z,97.93
2018-02-23T20:58:56.701Z,60.33
2018-02-23T21:01:26.024Z,46.25
2018-02-23T21:03:55.337Z,35.78
2018-02-23T21:06:24.832Z,23.58
2018-02-23T21:08:54.369Z,81.03
2018-02-23T21:11:23.507Z,47.97
2018-02-23T21:13:53.263Z,67.50
2018-02-23T21:16:22.134Z,133.23
2018-02-23T21:18:51.815Z,72.00
2018-02-23T21:21:21.549Z,81.03
2018-02-23T21:23:50.457Z,52.90
2018-02-23T21:26:19.370Z,52.20
2018-02-23T21:28:49.001Z,40.72
2018-02-23T21:31:17.868Z,62.58
2018-02-23T21:33:47.544Z,23.08
2018-02-23T21:36:17.311Z,27.70
2018-02-23T21:38:46.241Z,83.57
2018-02-23T21:41:15.333Z,139.65
2018-02-23T21:43:44.435Z,78.25
2018-02-23T21:46:13.543Z,130.55
2018-02-23T21:48:42.381Z,67.50
2018-02-23T21:51:11.457Z,135.75
2018-02-23T21:53:41.245Z,62.62
2018-02-23T21:56:10.580Z,40.23
2018-02-23T21:58:40.269Z,48.38
2018-02-23T22:01:09.173Z,42.22
2018-02-23T22:03:39.005Z,72.93
2018-02-23T22:06:07.884Z,93.32
2018-02-23T22:08:36.884Z,77.70
2018-02-23T22:11:05.900Z,53.33
2018-02-23T22:13:35.008Z,35.63
2018-02-23T22:16:04.763Z,26.15
2018-02-23T22:18:33.591Z,24.05
2018-02-23T22:21:02.573Z,24.48
2018-02-23T22:23:31.644Z,22.02
2018-02-23T22:26:01.305Z,23.20
2018-02-23T22:28:31.110Z,23.87
2018-02-23T22:31:00.001Z,24.05
2018-02-23T22:33:29.434Z,42.38
2018-02-23T22:35:58.394Z,50.83
2018-02-23T22:38:28.072Z,50.12
2018-02-23T22:40:57.053Z,66.05
2018-02-23T22:43:25.953Z,35.55
2018-02-23T22:45:54.881Z,73.37
2018-02-23T22:48:23.650Z,91.82
2018-02-23T22:50:52.516Z,95.43
2018-02-23T22:53:21.619Z,107.43
2018-02-23T22:55:51.225Z,66.03
2018-02-23T22:58:20.131Z,94.57
2018-02-23T23:00:49.171Z,110.18
2018-02-23T23:03:19.156Z,147.40
2018-02-23T23:05:49.872Z,78.70
2018-02-23T23:08:18.721Z,134.95
2018-02-23T23:10:48.413Z,121.45
2018-02-23T23:13:17.444Z,31.20
2018-02-23T23:15:46.405Z,19.83
2018-02-23T23:18:15.480Z,16.50
2018-02-23T23:20:44.659Z,13.98
2018-02-23T23:23:13.548Z,14.38
2018-02-23T23:25:42.504Z,12.95
2018-02-23T23:28:11.376Z,10.77
2018-02-23T23:30:41.307Z,10.82
2018-02-23T23:33:11.033Z,11.25
2018-02-23T23:35:40.087Z,10.37
2018-02-23T23:38:08.911Z,9.83
2018-02-23T23:40:38.561Z,9.95
2018-02-23T23:43:08.422Z,10.50
2018-02-23T23:45:38.248Z,10.40
2018-02-23T23:48:07.134Z,13.20
2018-02-23T23:50:36.890Z,9.55
2018-02-23T23:53:05.782Z,11.43
2018-02-23T23:55:35.456Z,9.87
2018-02-23T23:58:05.101Z,10.77
